Time;durP1;ratioP1;P1;durP2;ratioP2;P2;SDS_P1;SDS_P2;PMS_P1;PMS_P2;Temp;Humidity;BMP_temperature;BMP_pressure;BME280_temperature;BME280_humidity;BME280_pressure;Samples;Min_cycle;Max_cycle;Signal;HPM_P1;HPM_P2
2021/12/22 00:03:18;;;;;;;25.70;13.82;;;;;;;-1.87;100.00;102639.09;10174357;28;20488;-70
2021/12/22 00:08:17;;;;;;;23.73;13.63;;;;;;;-1.96;100.00;102647.22;10168335;28;20046;-69
2021/12/22 00:13:14;;;;;;;28.85;15.75;;;;;;;-2.00;100.00;102645.94;10184847;28;20084;-69
2021/12/22 00:18:10;;;;;;;22.08;14.35;;;;;;;-2.03;100.00;102640.13;10170138;28;20131;-69
2021/12/22 00:23:07;;;;;;;28.77;14.45;;;;;;;-1.95;100.00;102632.81;10030896;28;20059;-69
2021/12/22 00:28:04;;;;;;;27.23;13.98;;;;;;;-1.97;100.00;102634.84;10080599;28;20428;-70
2021/12/22 00:33:05;;;;;;;22.00;12.68;;;;;;;-1.96;100.00;102636.50;10183803;28;20142;-69
2021/12/22 00:38:02;;;;;;;24.20;13.77;;;;;;;-2.04;100.00;102639.31;10182905;28;20057;-68
2021/12/22 00:42:58;;;;;;;23.00;13.88;;;;;;;-2.16;100.00;102647.00;10097492;28;20122;-70
2021/12/22 00:47:55;;;;;;;27.63;14.35;;;;;;;-2.27;100.00;102654.66;10098871;28;20045;-69
2021/12/22 00:52:52;;;;;;;28.58;13.40;;;;;;;-2.34;100.00;102650.03;10181438;28;20456;-69
2021/12/22 00:57:49;;;;;;;25.77;14.65;;;;;;;-2.44;100.00;102654.81;10184677;28;20100;-69
2021/12/22 01:02:49;;;;;;;22.23;13.35;;;;;;;-2.59;100.00;102651.31;10186130;28;20046;-69
2021/12/22 01:07:48;;;;;;;19.92;12.30;;;;;;;-2.71;100.00;102660.81;10181366;28;20404;-71
2021/12/22 01:12:46;;;;;;;20.58;12.63;;;;;;;-2.57;100.00;102654.63;10183870;28;20045;-70
2021/12/22 01:17:46;;;;;;;23.63;12.68;;;;;;;-2.50;100.00;102658.25;10186152;28;20141;-70
2021/12/22 01:27:42;;;;;;;23.65;13.07;;;;;;;-2.56;100.00;102656.28;10178281;28;20045;-69
2021/12/22 01:32:40;;;;;;;23.67;12.15;;;;;;;-2.60;100.00;102655.84;10180972;28;20716;-69
2021/12/22 01:37:37;;;;;;;22.63;13.15;;;;;;;-2.61;100.00;102664.88;10184711;28;20085;-69
2021/12/22 01:42:34;;;;;;;22.40;12.13;;;;;;;-2.59;100.00;102657.50;10179641;28;20495;-69
2021/12/22 01:52:46;;;;;;;22.65;12.60;;;;;;;-2.64;100.00;102664.41;10113419;28;20125;-68
2021/12/22 01:57:45;;;;;;;21.80;13.50;;;;;;;-2.66;100.00;102661.09;10179984;28;20153;-66
2021/12/22 02:02:42;;;;;;;22.73;12.73;;;;;;;-2.67;100.00;102662.06;10185620;28;20104;-68
2021/12/22 02:07:39;;;;;;;24.63;11.43;;;;;;;-2.77;100.00;102660.50;10175717;28;20046;-68
2021/12/22 02:12:40;;;;;;;22.67;11.27;;;;;;;-2.83;100.00;102650.53;10186024;28;20046;-68
2021/12/22 02:17:39;;;;;;;18.92;11.52;;;;;;;-2.89;100.00;102651.25;10191049;28;20089;-68
2021/12/22 02:22:37;;;;;;;18.02;10.70;;;;;;;-2.90;100.00;102654.94;10185663;28;20532;-70
2021/12/22 02:27:43;;;;;;;22.10;10.40;;;;;;;-2.92;100.00;102651.59;10180448;28;20483;-70
2021/12/22 02:37:48;;;;;;;20.08;10.77;;;;;;;-3.00;100.00;102654.34;10178457;28;20626;-68
2021/12/22 02:42:46;;;;;;;19.63;10.60;;;;;;;-3.11;100.00;102657.44;10193821;28;20500;-68
2021/12/22 02:47:43;;;;;;;23.92;10.20;;;;;;;-3.19;100.00;102651.13;10177453;28;20049;-68
2021/12/22 02:57:45;;;;;;;16.60;10.77;;;;;;;-3.40;100.00;102648.28;10049764;28;20480;-68
2021/12/22 03:03:07;;;;;;;20.20;10.97;;;;;;;-3.39;100.00;102649.94;10061917;28;20043;-68
2021/12/22 03:08:04;;;;;;;20.17;10.52;;;;;;;-3.50;100.00;102648.53;10185817;28;20511;-69
2021/12/22 03:13:03;;;;;;;20.85;11.60;;;;;;;-3.57;100.00;102646.72;10181557;28;20050;-69
2021/12/22 03:18:00;;;;;;;19.30;10.85;;;;;;;-3.63;100.00;102649.09;10169545;28;20042;-69
2021/12/22 03:22:57;;;;;;;21.85;10.57;;;;;;;-3.69;100.00;102652.47;10178651;28;20081;-69
2021/12/22 03:27:57;;;;;;;18.48;10.75;;;;;;;-3.68;100.00;102653.31;10185111;28;20115;-69
2021/12/22 03:32:54;;;;;;;19.67;10.82;;;;;;;-3.78;100.00;102650.84;10181362;28;20053;-70
2021/12/22 03:37:57;;;;;;;18.80;10.73;;;;;;;-3.79;100.00;102638.47;10179541;28;20070;-69
2021/12/22 03:42:53;;;;;;;18.23;10.70;;;;;;;-3.89;100.00;102648.56;10181811;28;20054;-69
2021/12/22 03:47:50;;;;;;;19.45;11.52;;;;;;;-3.88;100.00;102644.88;10168699;28;20457;-68
2021/12/22 03:52:47;;;;;;;21.15;11.73;;;;;;;-3.98;100.00;102641.59;10179537;28;20141;-69
2021/12/22 03:57:44;;;;;;;20.60;12.27;;;;;;;-3.97;100.00;102645.91;10172261;28;20054;-69
2021/12/22 04:02:41;;;;;;;19.23;11.15;;;;;;;-4.02;100.00;102636.56;10181958;28;20067;-68
2021/12/22 04:07:38;;;;;;;18.48;10.70;;;;;;;-4.04;100.00;102637.75;10186299;28;20084;-69
2021/12/22 04:12:34;;;;;;;19.85;11.15;;;;;;;-4.13;100.00;102631.63;10181016;28;20060;-69
2021/12/22 04:17:31;;;;;;;20.33;10.35;;;;;;;-4.23;100.00;102633.66;10048860;28;20569;-69
2021/12/22 04:22:27;;;;;;;21.67;11.80;;;;;;;-4.23;100.00;102626.47;9937100;28;20102;-68
2021/12/22 04:27:23;;;;;;;23.58;11.20;;;;;;;-4.29;100.00;102621.84;10086167;28;20085;-69
2021/12/22 04:32:20;;;;;;;18.77;10.63;;;;;;;-4.35;100.00;102632.38;10171324;28;20074;-69
2021/12/22 04:37:16;;;;;;;18.48;11.02;;;;;;;-4.26;100.00;102626.00;10166780;28;20058;-70
2021/12/22 04:42:15;;;;;;;17.92;10.27;;;;;;;-4.28;100.00;102628.00;10180607;28;20073;-70
2021/12/22 04:47:12;;;;;;;20.40;10.35;;;;;;;-4.20;100.00;102629.81;10172093;28;20038;-69
2021/12/22 04:52:10;;;;;;;20.67;10.70;;;;;;;-4.28;100.00;102630.69;10166850;28;20133;-70
2021/12/22 04:57:06;;;;;;;17.92;9.90;;;;;;;-4.30;100.00;102624.69;10180084;28;20077;-70
2021/12/22 05:02:03;;;;;;;21.52;10.48;;;;;;;-4.33;100.00;102625.03;10083049;28;20092;-68
2021/12/22 05:07:00;;;;;;;20.85;10.00;;;;;;;-4.41;100.00;102620.53;10033755;28;20049;-69
2021/12/22 05:11:56;;;;;;;20.27;10.98;;;;;;;-4.42;100.00;102624.22;10170653;28;20520;-69
2021/12/22 05:16:59;;;;;;;20.17;10.82;;;;;;;-4.40;100.00;102624.06;10160282;28;20061;-69
2021/12/22 05:21:56;;;;;;;20.55;10.73;;;;;;;-4.46;100.00;102618.38;10172820;28;20057;-69
2021/12/22 05:26:53;;;;;;;22.20;11.43;;;;;;;-4.53;100.00;102614.72;10173459;28;20461;-70
2021/12/22 05:31:53;;;;;;;20.92;11.32;;;;;;;-4.51;100.00;102615.38;10175596;28;20535;-69
2021/12/22 05:36:50;;;;;;;22.42;12.70;;;;;;;-4.54;100.00;102622.91;10173032;28;20045;-68
2021/12/22 05:41:47;;;;;;;20.77;11.27;;;;;;;-4.61;100.00;102612.09;10168052;28;20046;-68
2021/12/22 05:46:43;;;;;;;21.48;11.13;;;;;;;-4.73;100.00;102619.63;10105695;28;20075;-68
2021/12/22 05:51:40;;;;;;;20.23;10.48;;;;;;;-4.69;100.00;102609.41;10015081;28;20404;-67
2021/12/22 05:56:36;;;;;;;21.25;11.35;;;;;;;-4.51;100.00;102620.72;10109123;28;20099;-67
2021/12/22 06:01:33;;;;;;;21.80;10.55;;;;;;;-4.48;100.00;102620.41;9943581;28;20049;-68
2021/12/22 06:06:30;;;;;;;26.40;10.70;;;;;;;-4.48;100.00;102623.06;9947028;28;20083;-66
2021/12/22 06:11:30;;;;;;;21.45;11.02;;;;;;;-4.40;100.00;102613.38;10016838;28;20058;-68
2021/12/22 06:16:29;;;;;;;21.48;11.00;;;;;;;-4.44;100.00;102613.69;10164737;28;20054;-68
2021/12/22 06:21:26;;;;;;;24.33;12.57;;;;;;;-4.44;100.00;102604.84;10168256;28;20053;-70
2021/12/22 06:26:23;;;;;;;22.00;10.95;;;;;;;-4.46;100.00;102602.34;10169879;28;20074;-71
2021/12/22 06:31:19;;;;;;;19.83;10.43;;;;;;;-4.63;100.00;102600.75;10164023;28;20049;-69
2021/12/22 06:36:17;;;;;;;23.75;11.27;;;;;;;-4.79;100.00;102592.78;10165729;28;20054;-69
2021/12/22 06:41:14;;;;;;;19.10;10.52;;;;;;;-4.80;100.00;102609.78;10163470;28;20042;-69
2021/12/22 06:46:10;;;;;;;30.08;12.90;;;;;;;-4.88;100.00;102606.13;10163969;28;20076;-69
2021/12/22 06:51:06;;;;;;;27.75;12.70;;;;;;;-4.95;100.00;102604.31;10167017;28;20041;-69
2021/12/22 06:56:03;;;;;;;22.98;11.07;;;;;;;-5.01;100.00;102611.16;10163812;28;20049;-67
2021/12/22 07:01:00;;;;;;;32.13;15.00;;;;;;;-5.11;100.00;102605.13;10175907;28;20465;-69
2021/12/22 07:05:57;;;;;;;29.98;13.13;;;;;;;-5.08;100.00;102599.50;10172686;28;20069;-69
2021/12/22 07:10:53;;;;;;;29.67;14.73;;;;;;;-5.03;100.00;102597.16;10174777;28;20121;-69
2021/12/22 07:15:51;;;;;;;36.38;14.75;;;;;;;-5.04;100.00;102595.47;10131556;28;20045;-69
2021/12/22 07:20:47;;;;;;;36.90;14.98;;;;;;;-4.90;100.00;102597.47;9969244;28;20136;-69
2021/12/22 07:25:43;;;;;;;35.33;16.20;;;;;;;-4.88;100.00;102600.78;10169472;28;20089;-69
2021/12/22 07:30:40;;;;;;;34.63;14.52;;;;;;;-4.88;100.00;102606.13;10179036;28;20642;-69
2021/12/22 07:35:57;;;;;;;44.20;17.08;;;;;;;-4.75;100.00;102599.44;10175167;28;20034;-69
2021/12/22 07:40:56;;;;;;;41.17;15.45;;;;;;;-4.71;100.00;102600.75;10169751;28;20049;-69
2021/12/22 07:45:53;;;;;;;36.50;15.45;;;;;;;-4.66;100.00;102593.09;10177026;28;20799;-69
2021/12/22 07:50:51;;;;;;;39.58;16.17;;;;;;;-4.61;100.00;102590.72;10180438;28;20115;-69
2021/12/22 07:55:48;;;;;;;37.92;15.68;;;;;;;-4.57;100.00;102586.72;10146034;28;20036;-69
2021/12/22 08:00:44;;;;;;;32.08;12.63;;;;;;;-4.44;100.00;102588.84;9967030;28;20558;-69
2021/12/22 08:05:41;;;;;;;35.13;15.13;;;;;;;-4.59;100.00;102588.72;9997478;28;20066;-69
2021/12/22 08:10:38;;;;;;;41.00;16.20;;;;;;;-4.52;100.00;102591.53;10171759;28;20069;-69
2021/12/22 08:15:35;;;;;;;44.45;17.52;;;;;;;-4.40;100.00;102592.84;10176395;28;20045;-69
2021/12/22 08:20:31;;;;;;;42.78;17.48;;;;;;;-4.48;100.00;102591.03;10178266;28;20549;-69
2021/12/22 08:25:28;;;;;;;44.40;17.50;;;;;;;-4.56;100.00;102587.53;10179925;28;20097;-69
2021/12/22 08:30:24;;;;;;;42.35;17.92;;;;;;;-4.29;100.00;102583.63;10147267;28;20072;-67
2021/12/22 08:35:25;;;;;;;42.70;19.17;;;;;;;-4.07;100.00;102592.69;9938785;28;20335;-69
2021/12/22 08:40:22;;;;;;;50.90;18.90;;;;;;;-4.16;100.00;102591.91;10168853;28;20496;-68
2021/12/22 08:45:18;;;;;;;47.33;16.92;;;;;;;-4.33;100.00;102596.47;10178608;28;20054;-69
2021/12/22 08:50:17;;;;;;;39.58;15.75;;;;;;;-4.12;100.00;102585.19;10176282;28;20082;-68
2021/12/22 08:55:14;;;;;;;41.60;16.25;;;;;;;-4.17;100.00;102587.56;10185760;28;20085;-69
2021/12/22 09:00:12;;;;;;;32.08;14.38;;;;;;;-4.14;100.00;102595.22;10188962;28;20476;-69
2021/12/22 09:05:08;;;;;;;40.38;16.52;;;;;;;-4.06;100.00;102597.88;10189796;28;20046;-69
2021/12/22 09:10:05;;;;;;;34.78;16.10;;;;;;;-4.12;100.00;102589.72;10177981;28;20077;-69
2021/12/22 09:15:02;;;;;;;41.80;15.45;;;;;;;-4.12;100.00;102590.53;10189654;28;20503;-69
2021/12/22 09:19:59;;;;;;;35.22;14.30;;;;;;;-4.08;100.00;102591.88;10176207;28;20074;-71
2021/12/22 09:24:56;;;;;;;39.53;16.08;;;;;;;-3.97;100.00;102592.47;9974713;28;20139;-71
2021/12/22 09:29:52;;;;;;;44.20;15.55;;;;;;;-3.91;100.00;102595.28;10169211;28;20034;-70
2021/12/22 09:34:49;;;;;;;38.25;15.80;;;;;;;-3.82;100.00;102601.41;10174920;28;20070;-71
2021/12/22 09:39:46;;;;;;;37.78;16.08;;;;;;;-3.68;100.00;102599.84;10172503;28;20488;-71
2021/12/22 09:44:45;;;;;;;38.08;16.08;;;;;;;-3.55;100.00;102601.91;10182416;28;20501;-71
2021/12/22 09:54:40;;;;;;;37.50;15.13;;;;;;;-3.27;100.00;102600.38;10175454;28;20076;-71
2021/12/22 09:59:37;;;;;;;35.15;14.60;;;;;;;-3.31;100.00;102603.59;10189732;28;20499;-70
2021/12/22 10:04:33;;;;;;;39.33;16.92;;;;;;;-3.37;100.00;102597.09;10180901;28;20038;-70
2021/12/22 10:09:42;;;;;;;39.10;17.45;;;;;;;-3.12;100.00;102597.75;10170769;28;20045;-70
2021/12/22 10:14:56;;;;;;;47.72;19.67;;;;;;;-3.07;100.00;102591.84;10175686;28;20116;-70
2021/12/22 10:19:57;;;;;;;45.92;18.88;;;;;;;-2.99;100.00;102597.13;10176126;28;20069;-70
2021/12/22 10:25:01;;;;;;;45.20;17.42;;;;;;;-3.22;100.00;102600.66;10186382;28;20069;-70
2021/12/22 10:29:57;;;;;;;43.15;17.00;;;;;;;-3.11;100.00;102598.56;10182594;28;20096;-70
2021/12/22 10:34:58;;;;;;;40.10;16.05;;;;;;;-3.14;100.00;102590.91;10181420;28;20072;-71
2021/12/22 10:39:55;;;;;;;43.85;16.48;;;;;;;-3.10;100.00;102590.38;10175075;28;20088;-69
2021/12/22 10:44:52;;;;;;;43.67;17.63;;;;;;;-2.94;100.00;102578.69;10184002;28;20037;-70
2021/12/22 10:50:06;;;;;;;42.83;17.08;;;;;;;-3.00;100.00;102579.41;9953133;28;20041;-70
2021/12/22 10:55:11;;;;;;;36.40;16.38;;;;;;;-2.83;100.00;102578.25;9989296;28;20122;-70
2021/12/22 11:00:25;;;;;;;36.70;15.70;;;;;;;-2.95;100.00;102568.97;10180890;28;20444;-70
2021/12/22 11:05:27;;;;;;;41.47;17.47;;;;;;;-2.78;100.00;102561.63;10179971;28;20050;-69
2021/12/22 11:10:29;;;;;;;36.15;15.23;;;;;;;-2.58;100.00;102564.56;10167401;28;20071;-70
2021/12/22 11:15:26;;;;;;;32.20;13.18;;;;;;;-2.51;100.00;102557.44;9960879;28;20681;-70
2021/12/22 11:20:24;;;;;;;38.22;15.27;;;;;;;-2.49;100.00;102552.75;10176354;28;20389;-71
2021/12/22 11:25:21;;;;;;;42.38;18.48;;;;;;;-2.41;100.00;102552.66;10181375;28;20637;-71
2021/12/22 11:30:17;;;;;;;43.15;18.05;;;;;;;-2.45;100.00;102551.38;10166160;28;20045;-70
2021/12/22 11:35:15;;;;;;;43.17;19.20;;;;;;;-2.39;100.00;102549.78;10179247;28;20054;-70
2021/12/22 11:40:16;;;;;;;43.20;19.45;;;;;;;-2.37;100.00;102548.59;10178243;28;20124;-71
2021/12/22 11:45:19;;;;;;;41.83;17.88;;;;;;;-2.43;100.00;102546.66;10159574;28;20058;-70
2021/12/22 11:50:23;;;;;;;46.95;20.52;;;;;;;-2.27;100.00;102542.94;9939274;29;20064;-70
2021/12/22 11:55:25;;;;;;;44.55;18.85;;;;;;;-2.30;100.00;102531.75;9953845;28;20499;-70
2021/12/22 12:00:27;;;;;;;46.45;20.73;;;;;;;-2.25;100.00;102529.34;10173974;28;20074;-70
2021/12/22 12:05:31;;;;;;;43.33;18.52;;;;;;;-2.19;100.00;102529.41;10178103;28;20483;-70
2021/12/22 12:10:34;;;;;;;38.65;17.98;;;;;;;-1.93;100.00;102523.56;10149325;28;20163;-70
2021/12/22 12:21:59;;;;;;;45.05;20.00;;;;;;;-1.81;100.00;102517.66;10175276;28;20073;-70
2021/12/22 12:26:56;;;;;;;47.40;21.73;;;;;;;-1.86;100.00;102506.69;10174154;28;20042;-71
2021/12/22 12:31:52;;;;;;;41.35;19.92;;;;;;;-1.67;100.00;102495.34;10188497;28;20633;-71
2021/12/22 12:36:49;;;;;;;40.97;19.40;;;;;;;-1.69;100.00;102500.06;10188663;28;20046;-70
2021/12/22 12:42:00;;;;;;;46.42;20.85;;;;;;;-1.70;100.00;102495.69;10189981;28;20531;-70
2021/12/22 12:46:56;;;;;;;45.83;20.33;;;;;;;-1.88;100.00;102492.63;10180023;28;20042;-71
2021/12/22 12:51:57;;;;;;;41.05;19.73;;;;;;;-2.04;100.00;102489.19;10101815;28;21283;-70
2021/12/22 12:57:12;;;;;;;46.28;21.15;;;;;;;-2.14;100.00;102488.66;9958729;28;20446;-71
2021/12/22 13:02:22;;;;;;;42.10;19.60;;;;;;;-2.00;100.00;102479.72;9955705;29;20091;-70
2021/12/22 13:07:20;;;;;;;42.60;19.38;;;;;;;-2.06;100.00;102475.16;9954984;28;20048;-70
2021/12/22 13:17:21;;;;;;;41.88;19.48;;;;;;;-1.86;100.00;102474.50;10059031;28;20037;-70
2021/12/22 13:22:28;;;;;;;48.35;20.02;;;;;;;-2.08;100.00;102473.69;10168653;28;20136;-70
2021/12/22 13:27:29;;;;;;;46.03;21.45;;;;;;;-1.94;100.00;102468.25;10187384;28;20609;-71
2021/12/22 13:32:26;;;;;;;48.67;19.77;;;;;;;-1.85;100.00;102460.91;10192989;28;20084;-70
2021/12/22 13:37:22;;;;;;;45.70;21.30;;;;;;;-1.79;100.00;102459.31;10183958;28;20065;-71
2021/12/22 13:42:19;;;;;;;43.45;20.45;;;;;;;-1.73;100.00;102461.22;10172101;28;20104;-70
2021/12/22 13:47:15;;;;;;;47.40;20.67;;;;;;;-1.68;100.00;102448.06;10176552;28;20866;-70
2021/12/22 13:52:12;;;;;;;44.75;20.52;;;;;;;-1.70;100.00;102447.41;10187738;28;20080;-71
2021/12/22 13:57:11;;;;;;;47.97;21.10;;;;;;;-1.74;100.00;102446.13;10196277;28;20452;-70
2021/12/22 14:02:08;;;;;;;48.47;22.48;;;;;;;-1.65;100.00;102444.97;10184945;28;20097;-70
2021/12/22 14:07:04;;;;;;;40.78;16.05;;;;;;;-1.72;100.00;102433.38;10125420;28;20769;-69
2021/12/22 14:12:10;;;;;;;35.33;17.85;;;;;;;-1.72;100.00;102438.72;10076236;28;20122;-71
2021/12/22 14:17:10;;;;;;;44.78;20.38;;;;;;;-1.74;100.00;102430.06;10182630;28;20034;-71
2021/12/22 14:22:18;;;;;;;47.88;22.10;;;;;;;-1.68;100.00;102423.91;10179300;28;20479;-71
2021/12/22 14:27:27;;;;;;;42.05;19.42;;;;;;;-1.67;100.00;102427.44;10174071;28;20483;-70
2021/12/22 14:32:30;;;;;;;41.80;21.02;;;;;;;-1.79;100.00;102419.09;10178999;28;20046;-70
2021/12/22 14:37:29;;;;;;;;;;;;;;;-1.75;100.00;102415.00;10179376;28;20084;-70
2021/12/22 14:42:30;;;;;;;43.67;19.75;;;;;;;-1.66;100.00;102411.16;10180984;28;19925;-71
2021/12/22 14:47:27;;;;;;;39.20;19.63;;;;;;;-1.69;100.00;102419.59;10183351;28;20562;-70
2021/12/22 14:52:23;;;;;;;46.17;22.05;;;;;;;-1.88;100.00;102417.56;10178239;28;20124;-70
2021/12/22 14:57:22;;;;;;;42.28;20.38;;;;;;;-2.05;100.00;102417.81;10184157;28;20049;-71
2021/12/22 15:02:18;;;;;;;44.30;20.48;;;;;;;-2.06;100.00;102416.19;10075753;28;20487;-70
2021/12/22 15:07:15;;;;;;;45.47;21.55;;;;;;;-1.96;100.00;102400.59;10082459;28;20072;-70
2021/12/22 15:12:11;;;;;;;47.65;22.48;;;;;;;-1.99;100.00;102398.31;10171542;28;20479;-70
2021/12/22 15:17:08;;;;;;;44.42;20.23;;;;;;;-2.06;100.00;102392.06;10177847;28;20088;-71
2021/12/22 15:22:04;;;;;;;41.50;19.65;;;;;;;-1.99;100.00;102390.25;10082055;28;20061;-70
2021/12/22 15:27:01;;;;;;;47.40;23.17;;;;;;;-2.04;100.00;102381.97;10046145;28;20081;-70
2021/12/22 15:32:02;;;;;;;43.38;22.48;;;;;;;-2.16;100.00;102383.50;10173268;28;20050;-70
2021/12/22 15:37:00;;;;;;;47.85;24.08;;;;;;;-2.19;100.00;102390.06;10187647;28;20096;-70
2021/12/22 15:41:56;;;;;;;46.55;21.83;;;;;;;-2.12;100.00;102387.44;10173410;28;20053;-70
2021/12/22 15:46:53;;;;;;;45.22;22.40;;;;;;;-2.07;100.00;102382.34;10178458;28;20080;-71
2021/12/22 15:51:50;;;;;;;46.58;22.92;;;;;;;-2.15;100.00;102388.66;10101934;28;20502;-71
2021/12/22 15:56:47;;;;;;;43.28;20.42;;;;;;;-2.10;100.00;102390.78;10027149;28;20136;-70
2021/12/22 16:01:43;;;;;;;46.25;20.67;;;;;;;-2.15;100.00;102385.16;10037501;28;20482;-70
2021/12/22 16:06:41;;;;;;;42.92;21.05;;;;;;;-2.15;100.00;102374.44;10182471;28;20045;-70
2021/12/22 16:11:37;;;;;;;44.20;22.00;;;;;;;-2.01;100.00;102368.19;10175280;28;20096;-70
2021/12/22 16:16:34;;;;;;;46.70;22.85;;;;;;;-1.91;100.00;102365.97;10175168;28;20070;-70
2021/12/22 16:21:30;;;;;;;47.63;23.50;;;;;;;-1.86;100.00;102372.63;10159220;28;20046;-70
2021/12/22 16:26:27;;;;;;;44.72;21.98;;;;;;;-1.94;100.00;102371.75;10164388;28;20069;-71
2021/12/22 16:31:23;;;;;;;48.55;23.98;;;;;;;-1.89;100.00;102367.66;10174731;28;20130;-71
2021/12/22 16:36:22;;;;;;;50.50;22.83;;;;;;;-1.89;100.00;102381.06;10177548;28;20048;-71
2021/12/22 16:41:23;;;;;;;49.35;23.38;;;;;;;-1.94;100.00;102371.75;10187181;28;20453;-71
2021/12/22 16:46:19;;;;;;;47.63;24.23;;;;;;;-1.96;100.00;102373.78;10193975;28;20100;-71
2021/12/22 16:51:16;;;;;;;47.45;21.27;;;;;;;-2.05;100.00;102358.03;10180027;28;20053;-71
2021/12/22 16:56:12;;;;;;;45.65;22.45;;;;;;;-2.08;100.00;102353.88;10183953;28;20069;-71
2021/12/22 17:01:10;;;;;;;50.70;23.08;;;;;;;-1.96;100.00;102343.47;10129487;28;20056;-71
2021/12/22 17:06:07;;;;;;;49.72;22.58;;;;;;;-1.84;100.00;102333.03;10059677;28;20046;-70
2021/12/22 17:11:03;;;;;;;50.45;22.45;;;;;;;-2.09;100.00;102330.78;10181772;28;20133;-70
2021/12/22 17:16:04;;;;;;;53.58;23.40;;;;;;;-1.95;100.00;102331.72;10171870;28;20803;-71
2021/12/22 17:21:04;;;;;;;52.67;24.23;;;;;;;-1.96;100.00;102322.84;10195927;28;20143;-71
2021/12/22 17:26:01;;;;;;;48.28;24.42;;;;;;;-1.91;100.00;102306.19;10186155;28;20065;-71
2021/12/22 17:30:59;;;;;;;49.72;22.73;;;;;;;-1.96;100.00;102293.34;10196429;28;20561;-71
2021/12/22 17:35:56;;;;;;;50.10;22.90;;;;;;;-2.11;100.00;102298.00;10184173;28;20037;-71
2021/12/22 17:40:59;;;;;;;49.25;25.00;;;;;;;-2.11;100.00;102295.31;10152980;28;20107;-71
2021/12/22 17:45:56;;;;;;;54.58;24.90;;;;;;;-2.12;100.00;102299.00;9981934;28;20128;-71
2021/12/22 17:50:55;;;;;;;50.53;22.85;;;;;;;-2.06;100.00;102286.69;10191717;28;20485;-71
2021/12/22 17:55:51;;;;;;;55.58;24.33;;;;;;;-2.07;100.00;102280.50;10146830;28;20057;-71
2021/12/22 18:00:49;;;;;;;49.28;22.80;;;;;;;-2.08;100.00;102278.84;9996982;28;20500;-71
2021/12/22 18:05:49;;;;;;;50.78;22.73;;;;;;;-1.99;100.00;102284.91;10185432;28;20045;-71
2021/12/22 18:10:46;;;;;;;50.00;23.60;;;;;;;-2.04;100.00;102288.16;10181747;28;20482;-71
2021/12/22 18:15:42;;;;;;;51.30;22.63;;;;;;;-2.01;100.00;102295.81;10180906;28;20129;-71
2021/12/22 18:20:39;;;;;;;44.42;20.98;;;;;;;-2.06;100.00;102275.97;10181097;28;20125;-71
2021/12/22 18:25:35;;;;;;;47.35;20.55;;;;;;;-2.10;100.00;102275.53;10159677;28;20200;-70
2021/12/22 18:30:32;;;;;;;44.25;19.58;;;;;;;-2.12;100.00;102272.22;10166341;28;20491;-70
2021/12/22 18:35:29;;;;;;;45.97;21.77;;;;;;;-2.08;100.00;102268.13;10166424;28;20500;-69
2021/12/22 18:40:46;;;;;;;46.28;20.35;;;;;;;-2.21;100.00;102258.13;10182323;28;20566;-70
2021/12/22 18:45:49;;;;;;;41.85;19.73;;;;;;;-2.22;100.00;102247.63;10175178;28;20070;-71
2021/12/22 18:50:47;;;;;;;46.08;20.92;;;;;;;-2.18;100.00;102235.47;10154677;28;20070;-71
2021/12/22 18:55:44;;;;;;;45.30;20.73;;;;;;;-2.22;100.00;102223.50;10167910;28;20038;-71
2021/12/22 19:00:43;;;;;;;55.55;24.98;;;;;;;-2.27;100.00;102209.88;10161853;28;20108;-71
2021/12/22 19:05:41;;;;;;;50.20;22.30;;;;;;;-2.34;100.00;102221.34;10175811;28;20101;-71
2021/12/22 19:10:38;;;;;;;47.63;22.58;;;;;;;-2.34;100.00;102221.34;10168821;28;20108;-71
2021/12/22 19:15:35;;;;;;;48.03;20.88;;;;;;;-2.46;100.00;102212.22;10172174;28;20387;-70
2021/12/22 19:20:32;;;;;;;47.33;20.67;;;;;;;-2.42;100.00;102205.41;10137268;28;20077;-71
2021/12/22 19:25:29;;;;;;;47.47;22.90;;;;;;;-2.44;100.00;102194.06;9936992;28;20068;-71
2021/12/22 19:30:27;;;;;;;47.17;20.15;;;;;;;-2.42;100.00;102183.97;9966914;28;20088;-71
2021/12/22 19:35:24;;;;;;;47.78;22.77;;;;;;;-2.36;100.00;102180.53;10171084;28;20053;-71
2021/12/22 19:40:25;;;;;;;53.58;22.50;;;;;;;-2.41;100.00;102188.34;10174671;28;20100;-71
2021/12/22 19:45:22;;;;;;;44.53;19.63;;;;;;;-2.45;100.00;102183.56;10178992;28;20609;-71
2021/12/22 19:50:21;;;;;;;54.95;25.33;;;;;;;-2.49;100.00;102177.75;10172005;28;20133;-71
2021/12/22 19:55:19;;;;;;;51.45;22.02;;;;;;;-2.39;100.00;102175.59;10164428;28;20459;-71
2021/12/22 20:00:23;;;;;;;45.28;22.85;;;;;;;-2.46;100.00;102169.34;9967956;28;20048;-71
2021/12/22 20:05:22;;;;;;;45.88;21.52;;;;;;;-2.48;100.00;102174.06;10172525;28;20096;-71
2021/12/22 20:10:20;;;;;;;46.03;21.27;;;;;;;-2.31;100.00;102177.28;10185883;28;20115;-71
2021/12/22 20:15:17;;;;;;;42.28;19.23;;;;;;;-2.22;100.00;102164.56;10160686;28;20049;-71
2021/12/22 20:20:17;;;;;;;37.50;18.42;;;;;;;-2.26;100.00;102156.06;10167509;28;20131;-71
2021/12/22 20:25:14;;;;;;;45.42;20.27;;;;;;;-2.30;100.00;102152.13;10172654;28;20069;-71
2021/12/22 20:30:15;;;;;;;42.13;18.95;;;;;;;-2.36;100.00;102153.75;10163119;28;20474;-71
2021/12/22 20:35:12;;;;;;;49.13;22.30;;;;;;;-2.36;100.00;102145.72;10165179;28;20473;-70
2021/12/22 20:40:10;;;;;;;43.92;21.25;;;;;;;-2.27;100.00;102134.84;10167458;28;20109;-71
2021/12/22 20:45:07;;;;;;;40.60;21.05;;;;;;;-2.29;100.00;102136.91;10165648;28;20085;-71
2021/12/22 20:50:05;;;;;;;43.28;21.38;;;;;;;-2.22;100.00;102135.06;10184830;28;20113;-70
2021/12/22 20:55:03;;;;;;;43.78;20.95;;;;;;;-2.18;100.00;102133.63;10179977;28;20187;-70
2021/12/22 21:00:00;;;;;;;41.40;20.70;;;;;;;-2.23;100.00;102126.19;10195233;28;20076;-70
2021/12/22 21:04:56;;;;;;;42.88;19.73;;;;;;;-2.26;100.00;102115.06;10173509;28;20134;-71
2021/12/22 21:09:53;;;;;;;42.67;21.10;;;;;;;-2.25;100.00;102112.19;10172535;28;20557;-70
2021/12/22 21:14:50;;;;;;;42.13;20.00;;;;;;;-2.14;100.00;102102.75;10176377;28;20077;-71
2021/12/22 21:19:46;;;;;;;39.75;19.55;;;;;;;-2.22;100.00;102094.88;10179265;28;20061;-70
2021/12/22 21:24:43;;;;;;;44.00;21.15;;;;;;;-2.27;100.00;102089.31;10182206;28;20184;-71
2021/12/22 21:29:39;;;;;;;47.30;21.98;;;;;;;-2.25;100.00;102095.25;10172635;28;20076;-71
2021/12/22 21:34:36;;;;;;;40.53;19.23;;;;;;;-2.21;100.00;102085.81;10169977;28;20085;-70
2021/12/22 21:39:32;;;;;;;40.60;19.30;;;;;;;-2.16;100.00;102086.03;10199657;28;20076;-71
2021/12/22 21:44:29;;;;;;;43.40;20.52;;;;;;;-2.27;100.00;102075.91;10178339;28;20046;-70
2021/12/22 21:49:25;;;;;;;40.63;20.05;;;;;;;-2.20;100.00;102052.66;10161894;28;20042;-71
2021/12/22 21:54:21;;;;;;;46.38;20.58;;;;;;;-2.25;100.00;102049.72;10165479;28;20137;-70
2021/12/22 21:59:18;;;;;;;47.33;20.67;;;;;;;-2.23;100.00;102040.44;10181905;28;20045;-68
2021/12/22 22:04:14;;;;;;;43.88;20.33;;;;;;;-2.14;100.00;102030.38;10173330;28;20062;-69
2021/12/22 22:09:11;;;;;;;42.80;20.80;;;;;;;-2.16;100.00;102025.25;10168113;28;20084;-69
2021/12/22 22:14:07;;;;;;;49.35;21.02;;;;;;;-2.22;100.00;102027.91;10188007;28;20054;-68
2021/12/22 22:19:04;;;;;;;44.17;20.73;;;;;;;-2.24;100.00;102021.91;10175206;28;20081;-69
2021/12/22 22:24:01;;;;;;;46.75;20.95;;;;;;;-2.27;100.00;102016.97;10176558;28;20042;-68
2021/12/22 22:28:58;;;;;;;46.70;21.50;;;;;;;-2.29;100.00;102019.00;10189363;28;20127;-68
2021/12/22 22:33:54;;;;;;;42.10;20.88;;;;;;;-2.36;100.00;102019.81;10173424;28;20073;-68
2021/12/22 22:38:51;;;;;;;45.38;21.73;;;;;;;-2.38;100.00;101994.25;10165939;28;20077;-69
2021/12/22 22:43:47;;;;;;;43.30;20.52;;;;;;;-2.33;100.00;101987.25;10173852;28;20054;-68